KJHW

Chautauqua County / Jamestown Airport

Jamestown, New York, USA
METAR KJHW 141256Z AUTO 29003KT 10SM SCT047 BKN055 OVC085 18/17 A3000 RMK AO2 RAE46 SLP155 P0007 T01830167
Observed Flight Rules
Aug-14 @ 12:56 UTC (46 minutes ago) Visual Flight Rules
Wind Visibility Clouds
290° at 3 knots 10 miles
  • Scattered at 4,700' AGL
  • Broken at 5,500' AGL
  • Overcast at 8,500' AGL
Temperatures Readings Precipitation
Current 18°C / 64°F
Dewpoint 17°C / 63°F
Humidity 94%
Altimeter 30" Hg
Pressure 1015.5 hPa
Elevation 525
Current Rain 0.07
METAR KJHW 141256Z AUTO 29003KT 10SM SCT047 BKN055 OVC085 18/17 A3000 RMK AO2 RAE46 SLP155 P0007 T01830167
Observed Flight Rules
Aug-14 @ 12:56 UTC
(46 minutes ago)
VFR
Wind Visibility
290° at 3 knots 10 miles
Clouds
  • Scattered at 4,700' AGL
  • Broken at 5,500' AGL
  • Overcast at 8,500' AGL
Temperature Dewpoint
18°C / 64°F 17°C / 63°F
Humidity Altimeter Pressure
94% 30" Hg 1015.5 hPa
Current Rain
0.07